sensor_id;sensor_type;location;lat;lon;timestamp;pressure;altitude;pressure_sealevel;temperature;humidity
62072;BME280;48031;48.542;13.232;2023-01-28T00:01:20;97706.41;;;4.43;62.62
62072;BME280;48031;48.542;13.232;2023-01-28T00:05:22;97711.34;;;4.26;63.00
62072;BME280;48031;48.542;13.232;2023-01-28T00:09:24;97710.66;;;3.98;64.11
62072;BME280;48031;48.542;13.232;2023-01-28T00:13:27;97707.63;;;4.21;63.32
62072;BME280;48031;48.542;13.232;2023-01-28T00:17:29;97715.47;;;4.22;62.83
62072;BME280;48031;48.542;13.232;2023-01-28T00:21:31;97708.84;;;4.18;62.67
62072;BME280;48031;48.542;13.232;2023-01-28T00:25:32;97712.59;;;4.37;62.08
62072;BME280;48031;48.542;13.232;2023-01-28T00:29:34;97707.00;;;4.32;62.60
62072;BME280;48031;48.542;13.232;2023-01-28T00:33:36;97699.59;;;4.34;62.47
62072;BME280;48031;48.542;13.232;2023-01-28T00:37:38;97703.28;;;4.46;62.57
62072;BME280;48031;48.542;13.232;2023-01-28T00:41:40;97707.16;;;3.97;63.25
62072;BME280;48031;48.542;13.232;2023-01-28T00:45:41;97707.16;;;3.97;62.60
62072;BME280;48031;48.542;13.232;2023-01-28T00:49:44;97706.81;;;4.46;61.35
62072;BME280;48031;48.542;13.232;2023-01-28T00:53:46;97712.59;;;4.63;61.44
62072;BME280;48031;48.542;13.232;2023-01-28T00:57:48;97705.13;;;4.19;62.25
62072;BME280;48031;48.542;13.232;2023-01-28T01:01:50;97714.66;;;4.22;63.48
62072;BME280;48031;48.542;13.232;2023-01-28T01:05:51;97715.44;;;4.02;63.15
62072;BME280;48031;48.542;13.232;2023-01-28T01:09:53;97726.22;;;4.22;62.84
62072;BME280;48031;48.542;13.232;2023-01-28T01:13:58;97721.09;;;4.60;61.80
62072;BME280;48031;48.542;13.232;2023-01-28T01:18:00;97719.03;;;4.55;61.54
62072;BME280;48031;48.542;13.232;2023-01-28T01:22:02;97724.78;;;4.46;61.05
62072;BME280;48031;48.542;13.232;2023-01-28T01:26:05;97727.66;;;4.25;62.22
62072;BME280;48031;48.542;13.232;2023-01-28T01:30:09;97732.00;;;4.19;63.03
62072;BME280;48031;48.542;13.232;2023-01-28T01:34:11;97725.16;;;4.03;62.53
62072;BME280;48031;48.542;13.232;2023-01-28T01:38:12;97721.47;;;4.24;61.92
62072;BME280;48031;48.542;13.232;2023-01-28T01:42:14;97734.50;;;4.27;62.09
62072;BME280;48031;48.542;13.232;2023-01-28T01:46:21;97728.53;;;4.71;61.81
62072;BME280;48031;48.542;13.232;2023-01-28T01:50:32;97731.00;;;4.79;61.53
62072;BME280;48031;48.542;13.232;2023-01-28T01:54:38;97737.63;;;4.70;61.08
62072;BME280;48031;48.542;13.232;2023-01-28T01:58:43;97734.13;;;4.63;61.76
62072;BME280;48031;48.542;13.232;2023-01-28T02:02:49;97738.03;;;4.28;62.88
62072;BME280;48031;48.542;13.232;2023-01-28T02:06:52;97731.78;;;4.14;62.71
62072;BME280;48031;48.542;13.232;2023-01-28T02:10:59;97731.22;;;4.58;62.29
62072;BME280;48031;48.542;13.232;2023-01-28T02:15:06;97739.28;;;4.51;62.59
62072;BME280;48031;48.542;13.232;2023-01-28T02:19:08;97738.69;;;4.95;61.19
62072;BME280;48031;48.542;13.232;2023-01-28T02:32:40;97746.34;;;4.79;61.91
62072;BME280;48031;48.542;13.232;2023-01-28T02:36:48;97754.19;;;4.54;62.83
62072;BME280;48031;48.542;13.232;2023-01-28T02:40:57;97750.25;;;5.02;60.62
62072;BME280;48031;48.542;13.232;2023-01-28T02:45:16;97752.75;;;4.71;61.60
62072;BME280;48031;48.542;13.232;2023-01-28T02:49:48;97757.06;;;4.92;60.98
62072;BME280;48031;48.542;13.232;2023-01-28T02:53:56;97760.19;;;4.56;62.31
62072;BME280;48031;48.542;13.232;2023-01-28T03:02:16;97757.91;;;4.79;61.73
62072;BME280;48031;48.542;13.232;2023-01-28T03:06:30;97752.09;;;5.09;60.27
62072;BME280;48031;48.542;13.232;2023-01-28T03:10:36;97745.88;;;4.42;61.94
62072;BME280;48031;48.542;13.232;2023-01-28T03:14:38;97746.47;;;4.11;63.62
62072;BME280;48031;48.542;13.232;2023-01-28T03:18:59;97750.44;;;4.48;61.97
62072;BME280;48031;48.542;13.232;2023-01-28T03:23:35;97752.31;;;4.74;61.90
62072;BME280;48031;48.542;13.232;2023-01-28T03:28:02;97764.84;;;4.14;62.89
62072;BME280;48031;48.542;13.232;2023-01-28T03:32:24;97766.53;;;4.29;62.77
62072;BME280;48031;48.542;13.232;2023-01-28T03:36:45;97765.78;;;4.61;61.59
62072;BME280;48031;48.542;13.232;2023-01-28T03:41:20;97765.34;;;4.64;62.38
62072;BME280;48031;48.542;13.232;2023-01-28T03:45:23;97773.84;;;4.61;61.66
62072;BME280;48031;48.542;13.232;2023-01-28T03:49:25;97773.22;;;4.66;61.00
62072;BME280;48031;48.542;13.232;2023-01-28T03:53:27;97771.97;;;4.75;60.90
62072;BME280;48031;48.542;13.232;2023-01-28T03:57:30;97777.50;;;4.34;62.08
62072;BME280;48031;48.542;13.232;2023-01-28T04:01:32;97765.09;;;4.46;61.49
62072;BME280;48031;48.542;13.232;2023-01-28T04:05:35;97779.63;;;4.91;60.43
62072;BME280;48031;48.542;13.232;2023-01-28T04:09:37;97778.78;;;4.64;61.24
62072;BME280;48031;48.542;13.232;2023-01-28T04:14:00;97790.31;;;4.32;62.75
62072;BME280;48031;48.542;13.232;2023-01-28T04:18:12;97794.69;;;4.59;62.02
62072;BME280;48031;48.542;13.232;2023-01-28T04:22:14;97791.38;;;4.44;62.38
62072;BME280;48031;48.542;13.232;2023-01-28T04:26:16;97794.31;;;4.75;60.99
62072;BME280;48031;48.542;13.232;2023-01-28T04:30:18;97792.66;;;4.61;62.02
62072;BME280;48031;48.542;13.232;2023-01-28T04:34:43;97794.75;;;4.79;60.89
62072;BME280;48031;48.542;13.232;2023-01-28T04:38:59;97788.53;;;4.91;59.94
62072;BME280;48031;48.542;13.232;2023-01-28T04:43:19;97804.25;;;5.08;60.04
62072;BME280;48031;48.542;13.232;2023-01-28T04:47:27;97800.31;;;5.03;59.86
62072;BME280;48031;48.542;13.232;2023-01-28T04:51:55;97804.44;;;4.60;61.40
62072;BME280;48031;48.542;13.232;2023-01-28T04:56:05;97805.25;;;3.93;63.45
62072;BME280;48031;48.542;13.232;2023-01-28T05:00:09;97805.69;;;4.77;60.97
62072;BME280;48031;48.542;13.232;2023-01-28T05:04:11;97807.94;;;4.54;61.90
62072;BME280;48031;48.542;13.232;2023-01-28T05:08:13;97805.88;;;4.56;61.66
62072;BME280;48031;48.542;13.232;2023-01-28T05:12:15;97810.81;;;4.52;61.47
62072;BME280;48031;48.542;13.232;2023-01-28T05:16:18;97813.31;;;4.54;61.87
62072;BME280;48031;48.542;13.232;2023-01-28T05:20:20;97819.53;;;4.74;60.77
62072;BME280;48031;48.542;13.232;2023-01-28T05:24:23;97807.88;;;4.41;61.46
62072;BME280;48031;48.542;13.232;2023-01-28T05:28:25;97817.25;;;4.65;60.96
62072;BME280;48031;48.542;13.232;2023-01-28T05:32:27;97812.44;;;4.40;62.13
62072;BME280;48031;48.542;13.232;2023-01-28T05:36:29;97821.78;;;4.57;60.94
62072;BME280;48031;48.542;13.232;2023-01-28T05:40:32;97818.13;;;4.98;59.72
62072;BME280;48031;48.542;13.232;2023-01-28T05:44:34;97829.69;;;4.79;60.27
62072;BME280;48031;48.542;13.232;2023-01-28T05:49:08;97823.41;;;4.39;61.79
62072;BME280;48031;48.542;13.232;2023-01-28T05:53:39;97824.69;;;4.69;61.60
62072;BME280;48031;48.542;13.232;2023-01-28T05:57:41;97833.59;;;4.76;60.43
62072;BME280;48031;48.542;13.232;2023-01-28T06:01:46;97836.91;;;4.65;61.68
62072;BME280;48031;48.542;13.232;2023-01-28T06:05:49;97844.56;;;4.81;60.85
62072;BME280;48031;48.542;13.232;2023-01-28T06:09:51;97835.66;;;4.61;61.62
62072;BME280;48031;48.542;13.232;2023-01-28T06:13:55;97845.38;;;4.69;61.70
62072;BME280;48031;48.542;13.232;2023-01-28T06:18:04;97852.44;;;4.96;60.62
62072;BME280;48031;48.542;13.232;2023-01-28T06:22:08;97846.19;;;4.63;61.01
62072;BME280;48031;48.542;13.232;2023-01-28T06:26:10;97856.75;;;4.64;61.81
62072;BME280;48031;48.542;13.232;2023-01-28T06:30:15;97863.81;;;4.85;60.70
62072;BME280;48031;48.542;13.232;2023-01-28T06:34:17;97861.72;;;4.67;61.50
62072;BME280;48031;48.542;13.232;2023-01-28T06:38:19;97874.56;;;4.72;61.35
62072;BME280;48031;48.542;13.232;2023-01-28T06:42:21;97873.78;;;5.04;59.88
62072;BME280;48031;48.542;13.232;2023-01-28T06:46:23;97880.63;;;5.07;59.71
62072;BME280;48031;48.542;13.232;2023-01-28T06:50:25;97888.25;;;4.90;60.56
62072;BME280;48031;48.542;13.232;2023-01-28T06:54:27;97886.38;;;4.97;59.42
62072;BME280;48031;48.542;13.232;2023-01-28T06:58:29;97896.56;;;5.15;58.52
62072;BME280;48031;48.542;13.232;2023-01-28T07:02:30;97897.00;;;4.44;60.83
62072;BME280;48031;48.542;13.232;2023-01-28T07:06:32;97899.81;;;4.77;59.60
62072;BME280;48031;48.542;13.232;2023-01-28T07:10:34;97902.06;;;4.67;61.03
62072;BME280;48031;48.542;13.232;2023-01-28T07:14:37;97908.03;;;4.69;60.30
62072;BME280;48031;48.542;13.232;2023-01-28T07:18:39;97906.03;;;4.97;59.01
62072;BME280;48031;48.542;13.232;2023-01-28T07:22:41;97908.00;;;4.63;60.25
62072;BME280;48031;48.542;13.232;2023-01-28T07:26:43;97908.00;;;4.49;60.50
62072;BME280;48031;48.542;13.232;2023-01-28T07:30:47;97912.69;;;5.08;59.46
62072;BME280;48031;48.542;13.232;2023-01-28T07:34:49;97912.69;;;5.15;58.68
62072;BME280;48031;48.542;13.232;2023-01-28T07:38:51;97913.09;;;5.05;58.88
62072;BME280;48031;48.542;13.232;2023-01-28T07:42:53;97922.94;;;4.72;59.74
62072;BME280;48031;48.542;13.232;2023-01-28T07:46:56;97928.00;;;5.08;58.83
62072;BME280;48031;48.542;13.232;2023-01-28T07:50:58;97933.00;;;5.24;57.95
62072;BME280;48031;48.542;13.232;2023-01-28T07:55:00;97940.78;;;4.92;58.99
62072;BME280;48031;48.542;13.232;2023-01-28T07:59:02;97929.66;;;5.09;58.86
62072;BME280;48031;48.542;13.232;2023-01-28T08:03:06;97941.09;;;5.24;58.84
62072;BME280;48031;48.542;13.232;2023-01-28T08:07:11;97950.81;;;5.58;57.68
62072;BME280;48031;48.542;13.232;2023-01-28T08:11:13;97955.34;;;5.18;58.78
62072;BME280;48031;48.542;13.232;2023-01-28T08:15:15;97956.16;;;5.25;58.20
62072;BME280;48031;48.542;13.232;2023-01-28T08:19:17;97954.94;;;5.21;58.44
62072;BME280;48031;48.542;13.232;2023-01-28T08:23:19;97955.09;;;4.99;59.58
62072;BME280;48031;48.542;13.232;2023-01-28T08:27:24;97962.72;;;4.89;59.71
62072;BME280;48031;48.542;13.232;2023-01-28T08:31:26;97954.06;;;5.00;59.93
62072;BME280;48031;48.542;13.232;2023-01-28T08:35:31;97957.34;;;4.96;59.94
62072;BME280;48031;48.542;13.232;2023-01-28T08:39:33;97960.31;;;5.21;59.17
62072;BME280;48031;48.542;13.232;2023-01-28T08:43:35;97963.00;;;5.21;58.97
62072;BME280;48031;48.542;13.232;2023-01-28T08:47:46;97968.03;;;5.83;57.79
62072;BME280;48031;48.542;13.232;2023-01-28T08:51:48;97972.59;;;5.63;57.23
62072;BME280;48031;48.542;13.232;2023-01-28T08:55:50;97970.47;;;5.32;57.88
62072;BME280;48031;48.542;13.232;2023-01-28T08:59:51;97971.16;;;5.73;56.78
62072;BME280;48031;48.542;13.232;2023-01-28T09:03:53;97970.88;;;5.35;58.14
62072;BME280;48031;48.542;13.232;2023-01-28T09:07:55;97978.56;;;5.45;57.65
62072;BME280;48031;48.542;13.232;2023-01-28T09:11:57;97973.59;;;5.49;58.66
62072;BME280;48031;48.542;13.232;2023-01-28T09:15:59;97976.75;;;4.85;59.98
62072;BME280;48031;48.542;13.232;2023-01-28T09:20:01;97969.84;;;5.17;58.08
62072;BME280;48031;48.542;13.232;2023-01-28T09:24:03;97972.81;;;5.88;56.92
62072;BME280;48031;48.542;13.232;2023-01-28T09:28:05;97973.22;;;6.04;56.61
62072;BME280;48031;48.542;13.232;2023-01-28T09:32:07;97988.38;;;4.92;59.86
62072;BME280;48031;48.542;13.232;2023-01-28T09:36:10;97984.78;;;6.24;56.55
62072;BME280;48031;48.542;13.232;2023-01-28T09:40:24;97982.63;;;6.59;55.58
62072;BME280;48031;48.542;13.232;2023-01-28T09:48:39;97989.34;;;5.71;57.63
62072;BME280;48031;48.542;13.232;2023-01-28T09:52:43;97991.63;;;6.27;55.62
62072;BME280;48031;48.542;13.232;2023-01-28T09:56:47;97986.53;;;6.70;55.01
62072;BME280;48031;48.542;13.232;2023-01-28T10:01:00;97983.84;;;6.63;55.85
62072;BME280;48031;48.542;13.232;2023-01-28T10:10:12;97987.16;;;6.72;55.84
62072;BME280;48031;48.542;13.232;2023-01-28T10:18:57;97979.25;;;6.77;55.21
62072;BME280;48031;48.542;13.232;2023-01-28T10:23:10;97964.59;;;7.04;55.13
62072;BME280;48031;48.542;13.232;2023-01-28T10:27:20;97973.75;;;6.97;54.91
62072;BME280;48031;48.542;13.232;2023-01-28T10:31:30;97960.69;;;6.36;56.89
62072;BME280;48031;48.542;13.232;2023-01-28T10:35:37;97967.09;;;6.99;54.35
62072;BME280;48031;48.542;13.232;2023-01-28T10:39:39;97969.72;;;5.91;57.12
62072;BME280;48031;48.542;13.232;2023-01-28T10:43:41;97975.25;;;6.22;55.65
62072;BME280;48031;48.542;13.232;2023-01-28T10:47:59;97974.78;;;6.51;56.31
62072;BME280;48031;48.542;13.232;2023-01-28T10:52:10;97964.66;;;6.40;57.61
62072;BME280;48031;48.542;13.232;2023-01-28T10:56:30;97965.72;;;6.90;55.81
62072;BME280;48031;48.542;13.232;2023-01-28T11:00:35;97977.94;;;6.35;56.70
62072;BME280;48031;48.542;13.232;2023-01-28T11:04:37;97973.84;;;5.93;57.27
62072;BME280;48031;48.542;13.232;2023-01-28T11:08:43;97969.03;;;6.28;57.59
62072;BME280;48031;48.542;13.232;2023-01-28T11:12:54;97963.53;;;6.67;56.89
62072;BME280;48031;48.542;13.232;2023-01-28T11:16:57;97973.66;;;6.01;58.23
62072;BME280;48031;48.542;13.232;2023-01-28T11:21:00;97971.72;;;6.28;57.54
62072;BME280;48031;48.542;13.232;2023-01-28T11:25:13;97975.19;;;6.48;58.02
62072;BME280;48031;48.542;13.232;2023-01-28T11:29:38;97972.25;;;6.63;56.59
62072;BME280;48031;48.542;13.232;2023-01-28T11:33:52;97976.53;;;6.00;58.74
62072;BME280;48031;48.542;13.232;2023-01-28T11:37:58;97969.03;;;6.35;57.39
62072;BME280;48031;48.542;13.232;2023-01-28T11:42:12;97966.53;;;6.91;55.81
62072;BME280;48031;48.542;13.232;2023-01-28T11:46:44;97966.78;;;6.83;56.70
62072;BME280;48031;48.542;13.232;2023-01-28T11:50:58;97967.13;;;6.93;55.86
62072;BME280;48031;48.542;13.232;2023-01-28T11:59:41;97955.72;;;7.29;54.82
62072;BME280;48031;48.542;13.232;2023-01-28T12:08:22;97957.63;;;6.84;56.09
62072;BME280;48031;48.542;13.232;2023-01-28T12:12:42;97958.34;;;7.04;55.36
62072;BME280;48031;48.542;13.232;2023-01-28T12:30:23;97958.06;;;7.50;53.90
62072;BME280;48031;48.542;13.232;2023-01-28T12:47:16;97959.66;;;7.33;53.68
62072;BME280;48031;48.542;13.232;2023-01-28T12:56:13;97962.50;;;6.62;55.38
62072;BME280;48031;48.542;13.232;2023-01-28T13:00:29;97960.38;;;6.06;56.51
62072;BME280;48031;48.542;13.232;2023-01-28T13:04:53;97964.25;;;6.88;55.12
62072;BME280;48031;48.542;13.232;2023-01-28T13:09:01;97960.75;;;6.81;55.95
62072;BME280;48031;48.542;13.232;2023-01-28T13:13:04;97972.28;;;6.50;55.42
62072;BME280;48031;48.542;13.232;2023-01-28T13:17:11;97970.47;;;6.95;55.22
62072;BME280;48031;48.542;13.232;2023-01-28T13:21:14;97972.47;;;6.61;54.95
62072;BME280;48031;48.542;13.232;2023-01-28T13:25:21;97974.50;;;6.66;55.81
62072;BME280;48031;48.542;13.232;2023-01-28T13:33:31;97980.84;;;6.40;56.52
62072;BME280;48031;48.542;13.232;2023-01-28T13:37:37;97977.69;;;6.43;56.22
62072;BME280;48031;48.542;13.232;2023-01-28T13:41:45;97975.41;;;6.47;56.50
62072;BME280;48031;48.542;13.232;2023-01-28T13:46:04;97985.09;;;6.67;56.27
62072;BME280;48031;48.542;13.232;2023-01-28T13:50:14;97986.13;;;6.66;55.93
62072;BME280;48031;48.542;13.232;2023-01-28T13:54:20;97991.44;;;6.09;56.99
62072;BME280;48031;48.542;13.232;2023-01-28T13:59:38;97989.72;;;7.05;55.54
62072;BME280;48031;48.542;13.232;2023-01-28T14:12:06;98004.66;;;6.43;57.38
62072;BME280;48031;48.542;13.232;2023-01-28T14:20:37;98010.72;;;6.06;58.04
62072;BME280;48031;48.542;13.232;2023-01-28T14:24:42;98008.47;;;5.90;57.14
62072;BME280;48031;48.542;13.232;2023-01-28T14:32:54;98020.22;;;5.82;57.05
62072;BME280;48031;48.542;13.232;2023-01-28T14:37:13;98030.41;;;6.19;57.01
62072;BME280;48031;48.542;13.232;2023-01-28T14:41:24;98024.56;;;5.57;58.75
62072;BME280;48031;48.542;13.232;2023-01-28T14:45:44;98025.75;;;6.66;55.40
62072;BME280;48031;48.542;13.232;2023-01-28T14:54:24;98038.69;;;6.38;56.19
62072;BME280;48031;48.542;13.232;2023-01-28T14:58:32;98041.13;;;6.65;55.24
62072;BME280;48031;48.542;13.232;2023-01-28T15:02:42;98041.13;;;6.65;55.63
62072;BME280;48031;48.542;13.232;2023-01-28T15:06:45;98034.50;;;6.55;56.18
62072;BME280;48031;48.542;13.232;2023-01-28T15:10:48;98032.88;;;5.81;57.64
62072;BME280;48031;48.542;13.232;2023-01-28T15:14:52;98041.59;;;5.97;56.92
62072;BME280;48031;48.542;13.232;2023-01-28T15:18:54;98041.59;;;6.03;57.12
62072;BME280;48031;48.542;13.232;2023-01-28T15:22:57;98048.66;;;5.98;57.13
62072;BME280;48031;48.542;13.232;2023-01-28T15:27:01;98052.41;;;6.23;56.96
62072;BME280;48031;48.542;13.232;2023-01-28T15:31:04;98053.84;;;6.12;57.12
62072;BME280;48031;48.542;13.232;2023-01-28T15:35:11;98060.44;;;6.49;56.65
62072;BME280;48031;48.542;13.232;2023-01-28T15:39:20;98058.97;;;6.53;57.22
62072;BME280;48031;48.542;13.232;2023-01-28T15:43:28;98072.84;;;6.63;56.99
62072;BME280;48031;48.542;13.232;2023-01-28T15:47:32;98066.44;;;6.58;56.63
62072;BME280;48031;48.542;13.232;2023-01-28T15:51:35;98077.06;;;5.94;57.80
62072;BME280;48031;48.542;13.232;2023-01-28T15:55:39;98066.09;;;6.02;57.33
62072;BME280;48031;48.542;13.232;2023-01-28T15:59:41;98082.25;;;6.02;56.57
62072;BME280;48031;48.542;13.232;2023-01-28T16:04:00;98077.25;;;6.25;56.51
62072;BME280;48031;48.542;13.232;2023-01-28T16:08:06;98078.09;;;6.06;56.72
62072;BME280;48031;48.542;13.232;2023-01-28T16:12:11;98088.06;;;6.12;56.88
62072;BME280;48031;48.542;13.232;2023-01-28T16:16:14;98085.06;;;5.80;56.30
62072;BME280;48031;48.542;13.232;2023-01-28T16:20:27;98088.47;;;6.15;57.43
62072;BME280;48031;48.542;13.232;2023-01-28T16:24:32;98091.38;;;6.27;57.26
62072;BME280;48031;48.542;13.232;2023-01-28T16:28:36;98100.28;;;6.21;56.50
62072;BME280;48031;48.542;13.232;2023-01-28T16:32:39;98096.88;;;5.73;57.12
62072;BME280;48031;48.542;13.232;2023-01-28T16:36:43;98099.22;;;6.09;56.80
62072;BME280;48031;48.542;13.232;2023-01-28T16:40:45;98107.53;;;6.20;56.45
62072;BME280;48031;48.542;13.232;2023-01-28T16:44:47;98109.44;;;5.53;57.80
62072;BME280;48031;48.542;13.232;2023-01-28T16:48:49;98109.44;;;5.39;59.01
62072;BME280;48031;48.542;13.232;2023-01-28T16:52:52;98108.00;;;5.43;59.85
62072;BME280;48031;48.542;13.232;2023-01-28T16:56:55;98111.91;;;5.41;59.38
62072;BME280;48031;48.542;13.232;2023-01-28T17:00:57;98124.09;;;5.37;59.80
62072;BME280;48031;48.542;13.232;2023-01-28T17:04:59;98110.56;;;5.71;58.58
62072;BME280;48031;48.542;13.232;2023-01-28T17:09:03;98122.66;;;5.95;58.98
62072;BME280;48031;48.542;13.232;2023-01-28T17:13:05;98127.72;;;5.57;59.22
62072;BME280;48031;48.542;13.232;2023-01-28T17:17:07;98126.78;;;5.91;58.39
62072;BME280;48031;48.542;13.232;2023-01-28T17:21:09;98131.78;;;5.94;58.68
62072;BME280;48031;48.542;13.232;2023-01-28T17:25:11;98137.38;;;5.99;58.39
62072;BME280;48031;48.542;13.232;2023-01-28T17:29:15;98125.78;;;6.05;57.96
62072;BME280;48031;48.542;13.232;2023-01-28T17:33:17;98138.22;;;6.26;58.02
62072;BME280;48031;48.542;13.232;2023-01-28T17:37:18;98133.31;;;5.56;61.21
62072;BME280;48031;48.542;13.232;2023-01-28T17:41:20;98149.25;;;5.64;61.01
62072;BME280;48031;48.542;13.232;2023-01-28T17:45:22;98150.44;;;5.48;61.84
62072;BME280;48031;48.542;13.232;2023-01-28T17:49:25;98151.81;;;5.78;59.78
62072;BME280;48031;48.542;13.232;2023-01-28T17:53:27;98160.47;;;5.67;60.23
62072;BME280;48031;48.542;13.232;2023-01-28T17:57:28;98161.31;;;5.68;60.11
62072;BME280;48031;48.542;13.232;2023-01-28T18:01:33;98154.22;;;6.34;59.42
62072;BME280;48031;48.542;13.232;2023-01-28T18:05:36;98157.06;;;6.00;59.93
62072;BME280;48031;48.542;13.232;2023-01-28T18:09:42;98149.22;;;6.51;58.88
62072;BME280;48031;48.542;13.232;2023-01-28T18:13:45;98157.28;;;6.05;59.88
62072;BME280;48031;48.542;13.232;2023-01-28T18:17:47;98158.97;;;6.12;59.57
62072;BME280;48031;48.542;13.232;2023-01-28T18:21:48;98167.03;;;6.19;59.15
62072;BME280;48031;48.542;13.232;2023-01-28T18:25:58;98163.94;;;6.22;59.54
62072;BME280;48031;48.542;13.232;2023-01-28T18:30:00;98175.97;;;6.13;59.21
62072;BME280;48031;48.542;13.232;2023-01-28T18:34:02;98186.97;;;5.70;61.82
62072;BME280;48031;48.542;13.232;2023-01-28T18:38:04;98187.88;;;5.84;60.83
62072;BME280;48031;48.542;13.232;2023-01-28T18:42:05;98184.19;;;5.98;60.03
62072;BME280;48031;48.542;13.232;2023-01-28T18:46:13;98171.81;;;6.17;60.59
62072;BME280;48031;48.542;13.232;2023-01-28T18:50:15;98178.25;;;6.22;59.74
62072;BME280;48031;48.542;13.232;2023-01-28T18:54:17;98194.16;;;6.04;60.02
62072;BME280;48031;48.542;13.232;2023-01-28T18:58:20;98185.63;;;5.88;60.46
62072;BME280;48031;48.542;13.232;2023-01-28T19:02:22;98197.03;;;5.90;59.92
62072;BME280;48031;48.542;13.232;2023-01-28T19:06:26;98198.66;;;5.84;61.23
62072;BME280;48031;48.542;13.232;2023-01-28T19:10:28;98202.69;;;6.14;59.70
62072;BME280;48031;48.542;13.232;2023-01-28T19:14:30;98203.72;;;6.07;59.48
62072;BME280;48031;48.542;13.232;2023-01-28T19:18:32;98204.50;;;5.94;60.34
62072;BME280;48031;48.542;13.232;2023-01-28T19:22:34;98200.97;;;5.87;60.23
62072;BME280;48031;48.542;13.232;2023-01-28T19:26:36;98193.31;;;5.97;60.45
62072;BME280;48031;48.542;13.232;2023-01-28T19:30:38;98206.50;;;5.85;60.55
62072;BME280;48031;48.542;13.232;2023-01-28T19:34:40;98200.28;;;5.78;60.61
62072;BME280;48031;48.542;13.232;2023-01-28T19:38:42;98191.97;;;5.67;60.91
62072;BME280;48031;48.542;13.232;2023-01-28T19:42:44;98194.09;;;5.84;60.14
62072;BME280;48031;48.542;13.232;2023-01-28T19:46:46;98196.00;;;5.97;60.03
62072;BME280;48031;48.542;13.232;2023-01-28T19:50:48;98192.56;;;5.62;61.15
62072;BME280;48031;48.542;13.232;2023-01-28T19:54:50;98186.88;;;5.92;59.90
62072;BME280;48031;48.542;13.232;2023-01-28T19:58:52;98178.63;;;6.19;59.37
62072;BME280;48031;48.542;13.232;2023-01-28T20:02:54;98187.28;;;5.89;59.90
62072;BME280;48031;48.542;13.232;2023-01-28T20:06:56;98187.13;;;6.03;60.10
62072;BME280;48031;48.542;13.232;2023-01-28T20:11:02;98181.31;;;6.00;60.25
62072;BME280;48031;48.542;13.232;2023-01-28T20:15:04;98180.53;;;6.25;59.06
62072;BME280;48031;48.542;13.232;2023-01-28T20:19:17;98189.00;;;6.09;60.79
62072;BME280;48031;48.542;13.232;2023-01-28T20:23:19;98197.50;;;5.59;61.65
62072;BME280;48031;48.542;13.232;2023-01-28T20:27:24;98197.94;;;5.69;62.19
62072;BME280;48031;48.542;13.232;2023-01-28T20:31:26;98197.63;;;5.85;60.33
62072;BME280;48031;48.542;13.232;2023-01-28T20:35:28;98207.25;;;6.07;59.67
62072;BME280;48031;48.542;13.232;2023-01-28T20:39:30;98210.72;;;5.88;59.46
62072;BME280;48031;48.542;13.232;2023-01-28T20:43:36;98206.59;;;5.99;60.29
62072;BME280;48031;48.542;13.232;2023-01-28T20:47:38;98210.56;;;6.09;58.84
62072;BME280;48031;48.542;13.232;2023-01-28T20:51:39;98215.09;;;6.02;59.96
62072;BME280;48031;48.542;13.232;2023-01-28T20:55:41;98213.06;;;6.17;59.06
62072;BME280;48031;48.542;13.232;2023-01-28T20:59:43;98223.81;;;6.04;59.69
62072;BME280;48031;48.542;13.232;2023-01-28T21:03:45;98216.59;;;6.18;58.95
62072;BME280;48031;48.542;13.232;2023-01-28T21:07:47;98230.13;;;6.44;58.18
62072;BME280;48031;48.542;13.232;2023-01-28T21:11:49;98234.03;;;6.22;58.59
62072;BME280;48031;48.542;13.232;2023-01-28T21:15:52;98236.84;;;5.94;61.06
62072;BME280;48031;48.542;13.232;2023-01-28T21:19:55;98228.06;;;5.79;60.31
62072;BME280;48031;48.542;13.232;2023-01-28T21:23:59;98236.16;;;6.46;58.55
62072;BME280;48031;48.542;13.232;2023-01-28T21:28:02;98249.16;;;5.75;60.24
62072;BME280;48031;48.542;13.232;2023-01-28T21:32:04;98247.09;;;5.77;60.64
62072;BME280;48031;48.542;13.232;2023-01-28T21:36:10;98243.19;;;6.54;58.65
62072;BME280;48031;48.542;13.232;2023-01-28T21:40:13;98243.53;;;6.24;59.04
62072;BME280;48031;48.542;13.232;2023-01-28T21:44:15;98255.59;;;5.81;59.88
62072;BME280;48031;48.542;13.232;2023-01-28T21:48:17;98262.41;;;6.18;59.21
62072;BME280;48031;48.542;13.232;2023-01-28T21:52:19;98265.78;;;5.85;61.03
62072;BME280;48031;48.542;13.232;2023-01-28T21:56:22;98267.81;;;6.24;59.39
62072;BME280;48031;48.542;13.232;2023-01-28T22:00:24;98267.56;;;6.06;59.78
62072;BME280;48031;48.542;13.232;2023-01-28T22:04:29;98263.38;;;5.97;61.38
62072;BME280;48031;48.542;13.232;2023-01-28T22:08:31;98254.44;;;5.97;60.36
62072;BME280;48031;48.542;13.232;2023-01-28T22:12:33;98260.72;;;6.10;59.17
62072;BME280;48031;48.542;13.232;2023-01-28T22:16:35;98260.13;;;6.15;58.85
62072;BME280;48031;48.542;13.232;2023-01-28T22:20:37;98253.31;;;6.32;58.28
62072;BME280;48031;48.542;13.232;2023-01-28T22:24:38;98246.63;;;6.02;59.02
62072;BME280;48031;48.542;13.232;2023-01-28T22:28:40;98248.84;;;5.92;59.61
62072;BME280;48031;48.542;13.232;2023-01-28T22:32:42;98252.22;;;6.07;59.47
62072;BME280;48031;48.542;13.232;2023-01-28T22:36:44;98257.84;;;5.71;59.91
62072;BME280;48031;48.542;13.232;2023-01-28T22:40:46;98262.16;;;5.65;59.99
62072;BME280;48031;48.542;13.232;2023-01-28T22:44:48;98255.56;;;5.68;59.51
62072;BME280;48031;48.542;13.232;2023-01-28T22:48:50;98255.56;;;5.33;61.24
62072;BME280;48031;48.542;13.232;2023-01-28T22:52:52;98261.31;;;5.24;61.07
62072;BME280;48031;48.542;13.232;2023-01-28T22:56:53;98257.06;;;5.42;61.25
62072;BME280;48031;48.542;13.232;2023-01-28T23:00:55;98249.59;;;5.85;59.60
62072;BME280;48031;48.542;13.232;2023-01-28T23:04:57;98262.91;;;5.46;60.10
62072;BME280;48031;48.542;13.232;2023-01-28T23:08:59;98260.34;;;5.72;60.10
62072;BME280;48031;48.542;13.232;2023-01-28T23:13:01;98262.97;;;5.25;62.12